sensor_id;sensor_type;location;lat;lon;timestamp;pressure;altitude;pressure_sealevel;temperature;humidity
47104;BME280;32853;52.164;5.400;2022-10-20T00:01:14;101775.00;;;9.98;100.00
47104;BME280;32853;52.164;5.400;2022-10-20T00:03:39;101773.28;;;9.95;100.00
47104;BME280;32853;52.164;5.400;2022-10-20T00:06:31;101706.28;;;9.54;100.00
47104;BME280;32853;52.164;5.400;2022-10-20T00:08:58;101600.03;;;8.76;100.00
47104;BME280;32853;52.164;5.400;2022-10-20T00:11:24;101763.88;;;9.88;100.00
47104;BME280;32853;52.164;5.400;2022-10-20T00:13:54;101770.00;;;9.87;100.00
47104;BME280;32853;52.164;5.400;2022-10-20T00:16:24;101785.13;;;9.71;100.00
47104;BME280;32853;52.164;5.400;2022-10-20T00:18:50;101782.28;;;9.82;100.00
47104;BME280;32853;52.164;5.400;2022-10-20T00:21:18;101762.16;;;9.87;100.00
47104;BME280;32853;52.164;5.400;2022-10-20T00:23:44;101667.69;;;9.26;100.00
47104;BME280;32853;52.164;5.400;2022-10-20T00:26:13;101697.84;;;9.41;100.00
47104;BME280;32853;52.164;5.400;2022-10-20T00:28:39;101618.84;;;8.91;100.00
47104;BME280;32853;52.164;5.400;2022-10-20T00:31:05;101668.44;;;9.33;100.00
47104;BME280;32853;52.164;5.400;2022-10-20T00:33:31;101745.94;;;9.71;100.00
47104;BME280;32853;52.164;5.400;2022-10-20T00:35:58;101683.25;;;9.31;100.00
47104;BME280;32853;52.164;5.400;2022-10-20T00:38:24;101737.34;;;9.66;100.00
47104;BME280;32853;52.164;5.400;2022-10-20T00:40:49;101635.00;;;9.09;100.00
47104;BME280;32853;52.164;5.400;2022-10-20T00:43:16;101656.41;;;9.26;100.00
47104;BME280;32853;52.164;5.400;2022-10-20T00:45:49;101567.88;;;8.75;100.00
47104;BME280;32853;52.164;5.400;2022-10-20T00:48:20;101712.16;;;9.64;100.00
47104;BME280;32853;52.164;5.400;2022-10-20T00:51:02;101589.13;;;9.00;100.00
47104;BME280;32853;52.164;5.400;2022-10-20T00:53:46;101700.75;;;9.68;100.00
47104;BME280;32853;52.164;5.400;2022-10-20T00:56:22;101587.34;;;9.02;100.00
47104;BME280;32853;52.164;5.400;2022-10-20T00:58:51;101705.44;;;9.53;100.00
47104;BME280;32853;52.164;5.400;2022-10-20T01:01:18;101472.28;;;8.32;100.00
47104;BME280;32853;52.164;5.400;2022-10-20T01:03:49;101564.00;;;8.94;100.00
47104;BME280;32853;52.164;5.400;2022-10-20T01:06:17;101593.06;;;9.18;100.00
47104;BME280;32853;52.164;5.400;2022-10-20T01:08:43;101549.50;;;8.81;100.00
47104;BME280;32853;52.164;5.400;2022-10-20T01:11:35;101690.22;;;9.71;100.00
47104;BME280;32853;52.164;5.400;2022-10-20T01:17:26;101668.75;;;9.58;100.00
47104;BME280;32853;52.164;5.400;2022-10-20T01:31:47;101663.47;;;9.61;100.00
47104;BME280;32853;52.164;5.400;2022-10-20T01:34:21;101586.16;;;9.15;100.00
47104;BME280;32853;52.164;5.400;2022-10-20T01:37:24;101593.13;;;9.15;100.00
47104;BME280;32853;52.164;5.400;2022-10-20T01:39:56;101458.47;;;8.27;100.00
47104;BME280;32853;52.164;5.400;2022-10-20T01:42:25;101657.44;;;9.57;100.00
47104;BME280;32853;52.164;5.400;2022-10-20T01:44:55;101560.81;;;9.22;100.00
47104;BME280;32853;52.164;5.400;2022-10-20T01:47:25;101650.59;;;9.53;100.00
47104;BME280;32853;52.164;5.400;2022-10-20T01:50:03;101641.94;;;9.50;100.00
47104;BME280;32853;52.164;5.400;2022-10-20T01:52:36;101624.53;;;9.50;100.00
47104;BME280;32853;52.164;5.400;2022-10-20T01:55:23;101548.88;;;9.10;100.00
47104;BME280;32853;52.164;5.400;2022-10-20T02:00:37;101634.03;;;9.53;100.00
47104;BME280;32853;52.164;5.400;2022-10-20T02:03:13;101621.75;;;9.58;100.00
47104;BME280;32853;52.164;5.400;2022-10-20T02:08:46;101539.59;;;8.97;100.00
47104;BME280;32853;52.164;5.400;2022-10-20T02:11:52;101539.06;;;9.20;100.00
47104;BME280;32853;52.164;5.400;2022-10-20T02:14:22;101586.22;;;9.51;100.00
47104;BME280;32853;52.164;5.400;2022-10-20T02:16:51;101575.09;;;9.44;100.00
47104;BME280;32853;52.164;5.400;2022-10-20T02:19:21;101581.16;;;9.45;100.00
47104;BME280;32853;52.164;5.400;2022-10-20T02:21:50;101573.13;;;9.52;100.00
47104;BME280;32853;52.164;5.400;2022-10-20T02:24:17;101470.00;;;8.97;100.00
47104;BME280;32853;52.164;5.400;2022-10-20T02:26:44;101380.88;;;8.41;100.00
47104;BME280;32853;52.164;5.400;2022-10-20T02:29:15;101585.31;;;9.53;100.00
47104;BME280;32853;52.164;5.400;2022-10-20T02:31:42;101533.84;;;9.20;100.00
47104;BME280;32853;52.164;5.400;2022-10-20T02:34:09;101491.78;;;8.98;100.00
47104;BME280;32853;52.164;5.400;2022-10-20T02:36:40;101577.53;;;9.50;100.00
47104;BME280;32853;52.164;5.400;2022-10-20T02:39:06;101562.66;;;9.54;100.00
47104;BME280;32853;52.164;5.400;2022-10-20T02:41:32;101494.09;;;9.10;100.00
47104;BME280;32853;52.164;5.400;2022-10-20T02:43:57;101558.81;;;9.33;100.00
47104;BME280;32853;52.164;5.400;2022-10-20T02:46:23;101483.94;;;8.96;100.00
47104;BME280;32853;52.164;5.400;2022-10-20T02:48:49;101512.75;;;9.29;100.00
47104;BME280;32853;52.164;5.400;2022-10-20T02:51:14;101418.38;;;8.76;100.00
47104;BME280;32853;52.164;5.400;2022-10-20T02:53:41;101325.94;;;8.12;100.00
47104;BME280;32853;52.164;5.400;2022-10-20T02:56:07;101326.56;;;8.23;100.00
47104;BME280;32853;52.164;5.400;2022-10-20T02:58:32;101474.50;;;9.28;100.00
47104;BME280;32853;52.164;5.400;2022-10-20T03:00:58;101506.50;;;9.36;100.00
47104;BME280;32853;52.164;5.400;2022-10-20T03:03:23;101496.25;;;9.28;100.00
47104;BME280;32853;52.164;5.400;2022-10-20T03:05:48;101416.00;;;8.64;100.00
47104;BME280;32853;52.164;5.400;2022-10-20T03:08:24;101516.88;;;9.39;100.00
47104;BME280;32853;52.164;5.400;2022-10-20T03:10:55;101417.16;;;8.91;100.00
47104;BME280;32853;52.164;5.400;2022-10-20T03:13:21;101453.41;;;9.01;100.00
47104;BME280;32853;52.164;5.400;2022-10-20T03:15:46;101426.50;;;8.99;100.00
47104;BME280;32853;52.164;5.400;2022-10-20T03:18:11;101377.91;;;8.58;100.00
47104;BME280;32853;52.164;5.400;2022-10-20T03:20:37;101359.88;;;8.49;100.00
47104;BME280;32853;52.164;5.400;2022-10-20T03:23:02;101465.13;;;9.21;100.00
47104;BME280;32853;52.164;5.400;2022-10-20T03:25:29;101509.25;;;9.30;100.00
47104;BME280;32853;52.164;5.400;2022-10-20T03:27:55;101418.13;;;8.85;100.00
47104;BME280;32853;52.164;5.400;2022-10-20T03:30:25;101270.59;;;8.02;100.00
47104;BME280;32853;52.164;5.400;2022-10-20T03:32:50;101402.34;;;8.91;100.00
47104;BME280;32853;52.164;5.400;2022-10-20T03:35:15;101330.19;;;8.56;100.00
47104;BME280;32853;52.164;5.400;2022-10-20T03:37:41;101354.41;;;8.60;100.00
47104;BME280;32853;52.164;5.400;2022-10-20T03:40:07;101260.84;;;8.09;100.00
47104;BME280;32853;52.164;5.400;2022-10-20T03:42:35;101434.50;;;9.27;100.00
47104;BME280;32853;52.164;5.400;2022-10-20T03:45:00;101439.91;;;9.20;100.00
47104;BME280;32853;52.164;5.400;2022-10-20T03:47:26;101416.22;;;8.93;100.00
47104;BME280;32853;52.164;5.400;2022-10-20T03:49:54;101442.63;;;9.15;100.00
47104;BME280;32853;52.164;5.400;2022-10-20T03:52:23;101359.97;;;8.82;100.00
47104;BME280;32853;52.164;5.400;2022-10-20T03:54:48;101435.28;;;9.32;100.00
47104;BME280;32853;52.164;5.400;2022-10-20T03:57:13;101450.28;;;9.23;100.00
47104;BME280;32853;52.164;5.400;2022-10-20T03:59:41;101385.75;;;8.94;100.00
47104;BME280;32853;52.164;5.400;2022-10-20T04:02:43;101433.47;;;9.35;100.00
47104;BME280;32853;52.164;5.400;2022-10-20T04:05:21;101434.00;;;9.47;100.00
47104;BME280;32853;52.164;5.400;2022-10-20T04:07:47;101355.13;;;9.02;100.00
47104;BME280;32853;52.164;5.400;2022-10-20T04:10:14;101388.59;;;9.19;100.00
47104;BME280;32853;52.164;5.400;2022-10-20T04:12:40;101399.53;;;9.35;100.00
47104;BME280;32853;52.164;5.400;2022-10-20T04:15:06;101339.56;;;8.99;100.00
47104;BME280;32853;52.164;5.400;2022-10-20T04:17:31;101333.53;;;8.95;100.00
47104;BME280;32853;52.164;5.400;2022-10-20T04:19:57;101396.88;;;9.36;100.00
47104;BME280;32853;52.164;5.400;2022-10-20T04:22:22;101416.72;;;9.43;100.00
47104;BME280;32853;52.164;5.400;2022-10-20T04:24:47;101429.69;;;9.46;100.00
47104;BME280;32853;52.164;5.400;2022-10-20T04:27:13;101341.78;;;9.14;100.00
47104;BME280;32853;52.164;5.400;2022-10-20T04:29:38;101413.94;;;9.49;100.00
47104;BME280;32853;52.164;5.400;2022-10-20T04:32:13;101277.34;;;8.84;100.00
47104;BME280;32853;52.164;5.400;2022-10-20T04:34:38;101410.31;;;9.55;100.00
47104;BME280;32853;52.164;5.400;2022-10-20T04:37:04;101204.41;;;8.47;100.00
47104;BME280;32853;52.164;5.400;2022-10-20T04:39:30;101179.38;;;8.39;100.00
47104;BME280;32853;52.164;5.400;2022-10-20T04:41:55;101383.75;;;9.39;100.00
47104;BME280;32853;52.164;5.400;2022-10-20T04:44:20;101232.88;;;8.56;100.00
47104;BME280;32853;52.164;5.400;2022-10-20T04:46:46;101387.16;;;9.43;100.00
47104;BME280;32853;52.164;5.400;2022-10-20T04:49:12;101400.78;;;9.52;100.00
47104;BME280;32853;52.164;5.400;2022-10-20T04:51:38;101367.97;;;9.44;100.00
47104;BME280;32853;52.164;5.400;2022-10-20T04:54:03;101193.72;;;8.22;100.00
47104;BME280;32853;52.164;5.400;2022-10-20T04:56:31;101376.41;;;9.21;100.00
47104;BME280;32853;52.164;5.400;2022-10-20T04:58:57;101278.53;;;8.70;100.00
47104;BME280;32853;52.164;5.400;2022-10-20T05:01:28;101212.25;;;8.47;100.00
47104;BME280;32853;52.164;5.400;2022-10-20T05:03:54;101274.81;;;8.81;100.00
47104;BME280;32853;52.164;5.400;2022-10-20T05:08:48;101289.44;;;8.86;100.00
47104;BME280;32853;52.164;5.400;2022-10-20T05:11:17;101215.75;;;8.46;100.00
47104;BME280;32853;52.164;5.400;2022-10-20T05:13:44;101367.72;;;9.19;100.00
47104;BME280;32853;52.164;5.400;2022-10-20T05:16:10;101105.47;;;7.72;100.00
47104;BME280;32853;52.164;5.400;2022-10-20T05:18:37;101343.34;;;9.20;100.00
47104;BME280;32853;52.164;5.400;2022-10-20T05:21:10;101217.09;;;8.60;100.00
47104;BME280;32853;52.164;5.400;2022-10-20T05:26:11;101149.28;;;8.26;100.00
47104;BME280;32853;52.164;5.400;2022-10-20T05:28:38;101229.47;;;8.85;100.00
47104;BME280;32853;52.164;5.400;2022-10-20T05:31:05;101227.09;;;8.77;100.00
47104;BME280;32853;52.164;5.400;2022-10-20T05:33:31;101332.47;;;9.37;100.00
47104;BME280;32853;52.164;5.400;2022-10-20T05:35:57;101324.84;;;9.29;100.00
47104;BME280;32853;52.164;5.400;2022-10-20T05:38:22;101306.09;;;9.15;100.00
47104;BME280;32853;52.164;5.400;2022-10-20T05:40:47;101272.31;;;9.10;100.00
47104;BME280;32853;52.164;5.400;2022-10-20T05:43:13;101230.91;;;8.98;100.00
47104;BME280;32853;52.164;5.400;2022-10-20T05:45:39;101294.88;;;9.44;100.00
47104;BME280;32853;52.164;5.400;2022-10-20T05:48:04;101220.56;;;8.93;100.00
47104;BME280;32853;52.164;5.400;2022-10-20T05:50:36;101166.63;;;8.63;100.00
47104;BME280;32853;52.164;5.400;2022-10-20T05:53:01;101265.31;;;9.43;100.00
47104;BME280;32853;52.164;5.400;2022-10-20T05:55:26;101080.50;;;8.35;100.00
47104;BME280;32853;52.164;5.400;2022-10-20T05:57:52;101173.66;;;8.92;100.00
47104;BME280;32853;52.164;5.400;2022-10-20T06:00:17;101187.97;;;8.77;100.00
47104;BME280;32853;52.164;5.400;2022-10-20T06:02:53;101280.78;;;9.49;100.00
47104;BME280;32853;52.164;5.400;2022-10-20T06:05:19;101250.78;;;9.33;100.00
47104;BME280;32853;52.164;5.400;2022-10-20T06:07:44;101210.31;;;9.18;100.00
47104;BME280;32853;52.164;5.400;2022-10-20T06:10:10;101122.69;;;8.80;100.00
47104;BME280;32853;52.164;5.400;2022-10-20T06:12:38;101207.28;;;9.34;100.00
47104;BME280;32853;52.164;5.400;2022-10-20T06:15:16;101284.09;;;9.56;100.00
47104;BME280;32853;52.164;5.400;2022-10-20T06:17:42;101143.16;;;8.63;100.00
47104;BME280;32853;52.164;5.400;2022-10-20T06:20:10;101306.38;;;9.68;100.00
47104;BME280;32853;52.164;5.400;2022-10-20T06:22:35;101139.41;;;8.73;100.00
47104;BME280;32853;52.164;5.400;2022-10-20T06:25:01;101107.72;;;8.56;100.00
47104;BME280;32853;52.164;5.400;2022-10-20T06:28:03;101306.69;;;9.86;100.00
47104;BME280;32853;52.164;5.400;2022-10-20T06:30:31;101307.63;;;9.84;100.00
47104;BME280;32853;52.164;5.400;2022-10-20T06:32:59;101313.00;;;9.79;100.00
47104;BME280;32853;52.164;5.400;2022-10-20T06:35:31;101159.31;;;8.77;100.00
47104;BME280;32853;52.164;5.400;2022-10-20T06:37:56;101303.50;;;9.77;100.00
47104;BME280;32853;52.164;5.400;2022-10-20T06:40:27;101186.31;;;9.06;100.00
47104;BME280;32853;52.164;5.400;2022-10-20T06:42:52;101293.31;;;9.68;100.00
47104;BME280;32853;52.164;5.400;2022-10-20T06:45:22;101294.56;;;9.84;100.00
47104;BME280;32853;52.164;5.400;2022-10-20T06:47:50;101173.78;;;9.18;100.00
47104;BME280;32853;52.164;5.400;2022-10-20T06:50:16;101290.84;;;9.93;100.00
47104;BME280;32853;52.164;5.400;2022-10-20T06:52:45;101283.16;;;9.86;100.00
47104;BME280;32853;52.164;5.400;2022-10-20T06:55:10;101193.13;;;9.42;100.00
47104;BME280;32853;52.164;5.400;2022-10-20T06:57:36;101046.06;;;8.55;100.00
47104;BME280;32853;52.164;5.400;2022-10-20T07:00:03;101298.13;;;10.11;100.00
47104;BME280;32853;52.164;5.400;2022-10-20T07:02:55;101266.00;;;10.07;100.00
47104;BME280;32853;52.164;5.400;2022-10-20T07:05:33;101209.00;;;9.63;100.00
47104;BME280;32853;52.164;5.400;2022-10-20T07:08:06;101280.53;;;10.16;100.00
47104;BME280;32853;52.164;5.400;2022-10-20T07:10:46;101280.19;;;10.28;100.00
47104;BME280;32853;52.164;5.400;2022-10-20T07:13:11;101245.13;;;10.06;100.00
47104;BME280;32853;52.164;5.400;2022-10-20T07:15:37;101162.59;;;9.72;100.00
47104;BME280;32853;52.164;5.400;2022-10-20T07:18:02;101294.50;;;10.44;100.00
47104;BME280;32853;52.164;5.400;2022-10-20T07:20:27;101200.63;;;10.09;100.00
47104;BME280;32853;52.164;5.400;2022-10-20T07:22:53;101195.00;;;10.23;100.00
47104;BME280;32853;52.164;5.400;2022-10-20T07:25:18;101243.59;;;10.55;100.00
47104;BME280;32853;52.164;5.400;2022-10-20T07:27:47;101249.22;;;10.69;100.00
47104;BME280;32853;52.164;5.400;2022-10-20T07:30:13;101256.81;;;10.76;100.00
47104;BME280;32853;52.164;5.400;2022-10-20T07:32:39;101195.38;;;10.37;100.00
47104;BME280;32853;52.164;5.400;2022-10-20T07:35:06;101130.81;;;10.12;100.00
47104;BME280;32853;52.164;5.400;2022-10-20T07:37:32;101261.78;;;10.84;100.00
47104;BME280;32853;52.164;5.400;2022-10-20T07:39:58;101193.63;;;10.37;100.00
47104;BME280;32853;52.164;5.400;2022-10-20T07:42:24;101168.00;;;10.22;100.00
47104;BME280;32853;52.164;5.400;2022-10-20T07:44:49;101237.84;;;10.70;100.00
47104;BME280;32853;52.164;5.400;2022-10-20T07:47:15;101274.72;;;10.89;100.00
47104;BME280;32853;52.164;5.400;2022-10-20T07:49:44;101260.41;;;10.99;100.00
47104;BME280;32853;52.164;5.400;2022-10-20T07:52:10;101274.97;;;11.06;100.00
47104;BME280;32853;52.164;5.400;2022-10-20T07:54:39;101198.78;;;10.65;100.00
47104;BME280;32853;52.164;5.400;2022-10-20T07:57:04;101182.19;;;10.66;100.00
47104;BME280;32853;52.164;5.400;2022-10-20T07:59:29;101128.31;;;10.36;100.00
47104;BME280;32853;52.164;5.400;2022-10-20T08:01:55;101150.75;;;10.43;100.00
47104;BME280;32853;52.164;5.400;2022-10-20T08:04:20;101150.69;;;10.44;100.00
47104;BME280;32853;52.164;5.400;2022-10-20T08:06:46;101241.81;;;11.06;100.00
47104;BME280;32853;52.164;5.400;2022-10-20T08:09:11;101252.81;;;11.16;100.00
47104;BME280;32853;52.164;5.400;2022-10-20T08:11:37;101227.28;;;11.23;100.00
47104;BME280;32853;52.164;5.400;2022-10-20T08:14:03;101182.84;;;10.96;100.00
47104;BME280;32853;52.164;5.400;2022-10-20T08:16:29;101231.34;;;11.30;100.00
47104;BME280;32853;52.164;5.400;2022-10-20T08:19:06;101233.75;;;11.36;100.00
47104;BME280;32853;52.164;5.400;2022-10-20T08:21:32;101221.19;;;11.22;100.00
47104;BME280;32853;52.164;5.400;2022-10-20T08:23:58;101245.66;;;11.45;100.00
47104;BME280;32853;52.164;5.400;2022-10-20T08:26:25;101223.00;;;11.44;100.00
47104;BME280;32853;52.164;5.400;2022-10-20T08:28:53;101162.38;;;11.07;100.00
47104;BME280;32853;52.164;5.400;2022-10-20T08:31:19;101189.38;;;11.33;100.00
47104;BME280;32853;52.164;5.400;2022-10-20T08:33:46;101151.63;;;11.15;100.00
47104;BME280;32853;52.164;5.400;2022-10-20T08:36:13;101169.53;;;11.49;100.00
47104;BME280;32853;52.164;5.400;2022-10-20T08:38:46;101170.56;;;11.45;100.00
47104;BME280;32853;52.164;5.400;2022-10-20T08:44:03;101123.59;;;11.41;100.00
47104;BME280;32853;52.164;5.400;2022-10-20T08:46:36;101206.47;;;11.88;100.00
47104;BME280;32853;52.164;5.400;2022-10-20T08:49:21;101148.03;;;11.63;100.00
47104;BME280;32853;52.164;5.400;2022-10-20T08:51:47;101202.31;;;12.05;100.00
47104;BME280;32853;52.164;5.400;2022-10-20T08:54:24;101212.94;;;12.24;100.00
47104;BME280;32853;52.164;5.400;2022-10-20T08:56:53;101200.06;;;12.17;100.00
47104;BME280;32853;52.164;5.400;2022-10-20T08:59:27;101206.19;;;12.38;100.00
47104;BME280;32853;52.164;5.400;2022-10-20T09:01:56;101206.03;;;12.43;100.00
47104;BME280;32853;52.164;5.400;2022-10-20T09:04:41;101208.50;;;12.46;100.00
47104;BME280;32853;52.164;5.400;2022-10-20T09:07:22;101208.63;;;12.43;100.00
47104;BME280;32853;52.164;5.400;2022-10-20T09:12:58;101195.38;;;12.46;100.00
47104;BME280;32853;52.164;5.400;2022-10-20T09:15:26;101151.84;;;12.21;100.00
47104;BME280;32853;52.164;5.400;2022-10-20T09:17:55;101144.13;;;12.17;100.00
47104;BME280;32853;52.164;5.400;2022-10-20T09:20:50;101147.84;;;12.33;100.00
47104;BME280;32853;52.164;5.400;2022-10-20T09:23:21;101111.91;;;12.15;100.00
47104;BME280;32853;52.164;5.400;2022-10-20T09:25:49;101105.41;;;12.03;100.00
47104;BME280;32853;52.164;5.400;2022-10-20T09:28:20;101128.22;;;12.21;100.00
47104;BME280;32853;52.164;5.400;2022-10-20T09:30:49;101167.63;;;12.61;100.00
47104;BME280;32853;52.164;5.400;2022-10-20T09:33:29;101170.53;;;12.75;100.00
47104;BME280;32853;52.164;5.400;2022-10-20T09:36:13;101135.19;;;12.43;100.00
47104;BME280;32853;52.164;5.400;2022-10-20T09:38:46;101087.22;;;12.19;100.00
47104;BME280;32853;52.164;5.400;2022-10-20T09:41:33;101164.94;;;12.83;100.00
47104;BME280;32853;52.164;5.400;2022-10-20T09:44:13;101067.06;;;12.21;100.00
47104;BME280;32853;52.164;5.400;2022-10-20T09:46:47;101090.66;;;12.41;100.00
47104;BME280;32853;52.164;5.400;2022-10-20T09:49:28;101052.13;;;12.03;100.00
47104;BME280;32853;52.164;5.400;2022-10-20T09:51:54;101131.59;;;12.45;100.00
47104;BME280;32853;52.164;5.400;2022-10-20T09:54:23;101168.34;;;12.85;100.00
47104;BME280;32853;52.164;5.400;2022-10-20T09:56:49;101160.94;;;12.74;100.00
47104;BME280;32853;52.164;5.400;2022-10-20T10:01:56;101099.25;;;12.45;100.00
47104;BME280;32853;52.164;5.400;2022-10-20T10:06:57;101165.38;;;12.92;100.00
47104;BME280;32853;52.164;5.400;2022-10-20T10:09:28;101162.34;;;13.01;100.00
47104;BME280;32853;52.164;5.400;2022-10-20T10:14:36;101059.91;;;12.45;100.00
47104;BME280;32853;52.164;5.400;2022-10-20T10:17:04;101142.75;;;12.90;100.00
47104;BME280;32853;52.164;5.400;2022-10-20T10:19:32;101025.91;;;12.23;100.00
47104;BME280;32853;52.164;5.400;2022-10-20T10:22:00;101009.09;;;12.27;100.00
47104;BME280;32853;52.164;5.400;2022-10-20T10:24:45;101146.81;;;13.16;100.00
47104;BME280;32853;52.164;5.400;2022-10-20T10:29:52;101162.91;;;13.28;100.00
47104;BME280;32853;52.164;5.400;2022-10-20T10:32:42;100971.44;;;12.09;100.00
47104;BME280;32853;52.164;5.400;2022-10-20T10:35:16;101147.06;;;13.30;100.00
47104;BME280;32853;52.164;5.400;2022-10-20T10:37:48;101151.97;;;13.37;100.00
47104;BME280;32853;52.164;5.400;2022-10-20T10:40:18;100970.44;;;12.32;100.00
47104;BME280;32853;52.164;5.400;2022-10-20T10:45:50;101133.50;;;13.39;100.00
47104;BME280;32853;52.164;5.400;2022-10-20T10:51:02;101020.50;;;12.84;100.00
47104;BME280;32853;52.164;5.400;2022-10-20T10:59:04;101109.00;;;13.57;100.00
47104;BME280;32853;52.164;5.400;2022-10-20T11:10:09;101042.94;;;13.29;100.00
47104;BME280;32853;52.164;5.400;2022-10-20T11:12:58;101093.84;;;13.62;100.00
47104;BME280;32853;52.164;5.400;2022-10-20T11:26:33;100995.13;;;13.22;100.00
47104;BME280;32853;52.164;5.400;2022-10-20T11:29:03;101071.22;;;13.60;100.00
47104;BME280;32853;52.164;5.400;2022-10-20T11:31:52;101065.47;;;13.52;100.00
47104;BME280;32853;52.164;5.400;2022-10-20T11:34:31;101007.25;;;13.25;100.00
47104;BME280;32853;52.164;5.400;2022-10-20T11:37:11;101065.75;;;13.64;100.00
47104;BME280;32853;52.164;5.400;2022-10-20T11:40:22;101068.91;;;13.71;100.00
47104;BME280;32853;52.164;5.400;2022-10-20T11:43:01;101068.13;;;13.69;100.00
47104;BME280;32853;52.164;5.400;2022-10-20T11:48:50;101060.41;;;13.66;100.00
47104;BME280;32853;52.164;5.400;2022-10-20T11:54:37;101063.72;;;13.70;100.00
47104;BME280;32853;52.164;5.400;2022-10-20T12:14:50;101010.41;;;13.68;100.00
47104;BME280;32853;52.164;5.400;2022-10-20T12:17:22;101026.09;;;13.69;100.00
47104;BME280;32853;52.164;5.400;2022-10-20T12:22:44;101018.69;;;13.77;100.00
47104;BME280;32853;52.164;5.400;2022-10-20T12:31:04;100987.59;;;13.68;100.00
47104;BME280;32853;52.164;5.400;2022-10-20T12:39:20;101005.00;;;13.88;100.00
47104;BME280;32853;52.164;5.400;2022-10-20T12:41:54;101008.00;;;13.98;100.00
47104;BME280;32853;52.164;5.400;2022-10-20T12:44:21;101005.38;;;13.98;100.00
47104;BME280;32853;52.164;5.400;2022-10-20T12:47:26;100820.91;;;12.87;100.00
47104;BME280;32853;52.164;5.400;2022-10-20T12:49:59;100939.97;;;13.57;100.00
47104;BME280;32853;52.164;5.400;2022-10-20T12:52:31;100945.72;;;13.65;100.00
47104;BME280;32853;52.164;5.400;2022-10-20T12:55:03;101016.56;;;14.01;100.00
47104;BME280;32853;52.164;5.400;2022-10-20T12:57:36;100923.81;;;13.47;100.00
47104;BME280;32853;52.164;5.400;2022-10-20T13:02:52;100878.16;;;13.32;100.00
47104;BME280;32853;52.164;5.400;2022-10-20T13:10:39;100886.03;;;13.50;100.00
47104;BME280;32853;52.164;5.400;2022-10-20T13:18:11;100801.44;;;13.08;100.00
47104;BME280;32853;52.164;5.400;2022-10-20T13:23:15;100996.84;;;14.43;100.00
47104;BME280;32853;52.164;5.400;2022-10-20T13:25:48;100992.44;;;14.43;100.00
47104;BME280;32853;52.164;5.400;2022-10-20T13:28:20;100986.88;;;14.49;100.00
47104;BME280;32853;52.164;5.400;2022-10-20T13:34:25;100977.38;;;14.63;100.00
47104;BME280;32853;52.164;5.400;2022-10-20T13:45:53;100986.03;;;14.96;100.00
47104;BME280;32853;52.164;5.400;2022-10-20T13:51:18;100915.84;;;14.65;100.00
47104;BME280;32853;52.164;5.400;2022-10-20T13:53:48;100977.91;;;15.01;100.00
47104;BME280;32853;52.164;5.400;2022-10-20T13:59:03;100973.63;;;15.14;100.00
47104;BME280;32853;52.164;5.400;2022-10-20T14:01:28;100861.56;;;14.47;100.00
47104;BME280;32853;52.164;5.400;2022-10-20T14:03:54;100976.50;;;15.25;100.00
47104;BME280;32853;52.164;5.400;2022-10-20T14:08:51;100918.44;;;14.81;100.00
47104;BME280;32853;52.164;5.400;2022-10-20T14:11:24;100972.94;;;15.26;100.00
47104;BME280;32853;52.164;5.400;2022-10-20T14:13:53;100955.88;;;15.18;100.00
47104;BME280;32853;52.164;5.400;2022-10-20T14:16:22;100867.28;;;14.55;100.00
47104;BME280;32853;52.164;5.400;2022-10-20T14:19:04;100966.81;;;15.26;100.00
47104;BME280;32853;52.164;5.400;2022-10-20T14:21:46;100963.66;;;15.35;100.00
47104;BME280;32853;52.164;5.400;2022-10-20T14:24:32;100959.75;;;15.42;100.00
47104;BME280;32853;52.164;5.400;2022-10-20T14:27:00;100955.13;;;15.46;100.00
47104;BME280;32853;52.164;5.400;2022-10-20T14:29:28;100781.25;;;14.40;100.00
47104;BME280;32853;52.164;5.400;2022-10-20T14:31:56;100861.97;;;14.87;100.00
47104;BME280;32853;52.164;5.400;2022-10-20T14:34:24;100828.44;;;14.74;100.00
47104;BME280;32853;52.164;5.400;2022-10-20T14:36:52;100949.16;;;15.58;100.00
47104;BME280;32853;52.164;5.400;2022-10-20T14:41:56;100857.19;;;15.23;100.00
47104;BME280;32853;52.164;5.400;2022-10-20T14:44:22;100842.53;;;15.19;100.00
47104;BME280;32853;52.164;5.400;2022-10-20T14:46:49;100884.16;;;15.43;100.00
47104;BME280;32853;52.164;5.400;2022-10-20T14:49:24;100896.31;;;15.59;100.00
47104;BME280;32853;52.164;5.400;2022-10-20T14:52:00;100915.22;;;15.67;100.00
47104;BME280;32853;52.164;5.400;2022-10-20T14:54:35;100814.25;;;15.07;100.00
47104;BME280;32853;52.164;5.400;2022-10-20T14:59:34;100943.59;;;15.92;100.00
47104;BME280;32853;52.164;5.400;2022-10-20T15:02:11;100834.13;;;15.27;100.00
47104;BME280;32853;52.164;5.400;2022-10-20T15:04:41;100934.81;;;15.92;100.00
47104;BME280;32853;52.164;5.400;2022-10-20T15:07:25;100898.44;;;15.68;100.00
47104;BME280;32853;52.164;5.400;2022-10-20T15:09:54;100920.78;;;15.91;100.00
47104;BME280;32853;52.164;5.400;2022-10-20T15:12:37;100931.72;;;16.00;100.00
47104;BME280;32853;52.164;5.400;2022-10-20T15:18:13;100866.78;;;15.54;100.00
47104;BME280;32853;52.164;5.400;2022-10-20T15:20:39;100931.72;;;16.00;100.00
47104;BME280;32853;52.164;5.400;2022-10-20T15:23:13;100925.78;;;15.96;100.00
47104;BME280;32853;52.164;5.400;2022-10-20T15:30:50;100753.06;;;14.88;100.00
47104;BME280;32853;52.164;5.400;2022-10-20T15:33:16;100948.31;;;16.02;100.00
47104;BME280;32853;52.164;5.400;2022-10-20T15:35:43;100914.56;;;15.78;100.00
47104;BME280;32853;52.164;5.400;2022-10-20T15:38:11;100920.09;;;15.74;100.00
47104;BME280;32853;52.164;5.400;2022-10-20T15:40:37;100822.94;;;15.09;100.00
47104;BME280;32853;52.164;5.400;2022-10-20T15:43:03;100874.41;;;15.29;100.00